Time;durP1;ratioP1;P1;durP2;ratioP2;P2;SDS_P1;SDS_P2;PMS_P1;PMS_P2;Temp;Humidity;BMP_temperature;BMP_pressure;BME280_temperature;BME280_humidity;BME280_pressure;Samples;Min_cycle;Max_cycle;Signal;HPM_P1;HPM_P2
2023/10/25 00:01:16;;;;;;;1.90;1.00;;;10.70;99.90;;;;;;4958820;28;20368;-76
2023/10/25 00:03:42;;;;;;;1.65;1.08;;;10.60;99.90;;;;;;4972048;28;20031;-76
2023/10/25 00:06:07;;;;;;;1.90;1.10;;;10.60;99.90;;;;;;4973423;28;20106;-76
2023/10/25 00:08:33;;;;;;;1.75;1.35;;;10.60;99.90;;;;;;4971729;28;20082;-76
2023/10/25 00:11:06;;;;;;;3.20;1.30;;;10.60;99.90;;;;;;4975797;28;20085;-76
2023/10/25 00:13:33;;;;;;;1.75;1.05;;;10.60;99.90;;;;;;4971630;28;20033;-76
2023/10/25 00:15:58;;;;;;;2.72;0.82;;;10.50;99.90;;;;;;4954078;28;20027;-76
2023/10/25 00:18:24;;;;;;;3.30;1.05;;;10.50;99.90;;;;;;4972631;28;20037;-76
2023/10/25 00:20:53;;;;;;;3.13;0.88;;;10.50;99.90;;;;;;4974821;28;20026;-76
2023/10/25 00:23:19;;;;;;;1.83;0.80;;;10.50;99.90;;;;;;4971471;28;20046;-77
2023/10/25 00:25:47;;;;;;;1.60;0.77;;;10.50;99.90;;;;;;4978615;28;20038;-78
2023/10/25 00:28:12;;;;;;;1.20;0.93;;;10.50;99.90;;;;;;4973442;28;20046;-78
2023/10/25 00:30:38;;;;;;;2.85;1.10;;;10.50;99.90;;;;;;4984844;28;20023;-78
2023/10/25 00:33:04;;;;;;;7.15;1.05;;;10.50;99.90;;;;;;4985136;28;20031;-78
2023/10/25 00:35:29;;;;;;;2.28;0.80;;;10.40;99.90;;;;;;4985140;28;20023;-78
2023/10/25 00:37:55;;;;;;;1.02;0.70;;;10.40;99.90;;;;;;4986161;28;20034;-78
2023/10/25 00:40:21;;;;;;;1.20;0.70;;;10.40;99.90;;;;;;4985132;28;20029;-78
2023/10/25 00:42:46;;;;;;;3.22;1.13;;;10.40;99.90;;;;;;4981048;28;20632;-77
2023/10/25 00:45:13;;;;;;;2.70;1.15;;;10.40;99.90;;;;;;4978701;28;20035;-78
2023/10/25 00:47:41;;;;;;;1.73;1.38;;;10.40;99.90;;;;;;4962786;28;20041;-78
2023/10/25 00:50:08;;;;;;;2.50;0.82;;;10.40;99.90;;;;;;4972507;28;20030;-78
2023/10/25 00:52:33;;;;;;;2.78;1.27;;;10.30;99.90;;;;;;4975337;28;20082;-78
2023/10/25 00:54:59;;;;;;;2.25;0.98;;;10.30;99.90;;;;;;4972968;28;20015;-78
2023/10/25 00:57:25;;;;;;;2.35;1.17;;;10.30;99.90;;;;;;4980747;28;20031;-78
2023/10/25 00:59:51;;;;;;;2.13;0.70;;;10.30;99.90;;;;;;4978422;28;20035;-78
2023/10/25 01:02:17;;;;;;;3.58;0.90;;;10.30;99.90;;;;;;4983655;28;20023;-78
2023/10/25 01:04:44;;;;;;;1.25;0.90;;;10.30;99.90;;;;;;4985448;28;20049;-79
2023/10/25 01:07:09;;;;;;;1.35;0.70;;;10.20;99.90;;;;;;4966039;28;20035;-78
2023/10/25 01:09:35;;;;;;;5.00;1.02;;;10.20;99.90;;;;;;4968126;28;20031;-78
2023/10/25 01:12:01;;;;;;;1.52;1.13;;;10.20;99.90;;;;;;4961376;29;20027;-78
2023/10/25 01:14:28;;;;;;;3.10;0.73;;;10.20;99.90;;;;;;4961676;29;20019;-78
2023/10/25 01:16:53;;;;;;;1.30;0.95;;;10.20;99.90;;;;;;4961981;29;20387;-78
2023/10/25 01:19:19;;;;;;;3.55;1.00;;;10.20;99.90;;;;;;4959756;29;20028;-77
2023/10/25 01:21:44;;;;;;;1.98;1.02;;;10.20;99.90;;;;;;4957283;29;20027;-78
2023/10/25 01:24:11;;;;;;;1.88;1.10;;;10.10;99.90;;;;;;4940242;29;20114;-77
2023/10/25 01:26:36;;;;;;;2.30;1.70;;;10.20;99.90;;;;;;4957183;29;20023;-77
2023/10/25 01:29:02;;;;;;;2.47;1.20;;;10.20;99.90;;;;;;4956975;29;20034;-78
2023/10/25 01:31:28;;;;;;;2.42;1.15;;;10.20;99.90;;;;;;4939994;29;20027;-78
2023/10/25 01:33:53;;;;;;;1.65;1.10;;;10.20;99.90;;;;;;4957131;29;20027;-77
2023/10/25 01:36:19;;;;;;;1.50;0.98;;;10.20;99.90;;;;;;4956842;29;20024;-78
2023/10/25 01:38:45;;;;;;;2.30;1.10;;;10.20;99.90;;;;;;4961704;28;20023;-79
2023/10/25 01:41:15;;;;;;;3.10;1.10;;;10.30;99.90;;;;;;4966151;28;20065;-78
2023/10/25 01:43:42;;;;;;;2.45;1.38;;;10.30;99.90;;;;;;4976349;28;20026;-78
2023/10/25 01:46:08;;;;;;;1.50;1.20;;;10.30;99.90;;;;;;4974170;28;20041;-77
2023/10/25 01:48:33;;;;;;;1.45;0.90;;;10.20;99.90;;;;;;4974970;28;20027;-78
2023/10/25 01:50:59;;;;;;;1.73;1.30;;;10.20;99.90;;;;;;4975240;28;20038;-78
2023/10/25 01:53:24;;;;;;;1.50;0.98;;;10.20;99.90;;;;;;4975423;28;20054;-78
2023/10/25 01:55:50;;;;;;;2.08;1.30;;;10.20;99.90;;;;;;4975616;28;20023;-78
2023/10/25 01:58:16;;;;;;;1.85;1.00;;;10.20;99.90;;;;;;4956848;28;20394;-77
2023/10/25 02:00:42;;;;;;;3.15;1.25;;;10.10;99.90;;;;;;4975750;28;20639;-78
2023/10/25 02:03:07;;;;;;;1.35;1.17;;;10.10;99.90;;;;;;4979081;28;20085;-79
2023/10/25 02:05:33;;;;;;;2.15;1.05;;;10.10;99.90;;;;;;4972923;28;20039;-79
2023/10/25 02:07:58;;;;;;;1.88;1.15;;;10.10;99.90;;;;;;4955770;28;20137;-77
2023/10/25 02:10:24;;;;;;;1.67;1.15;;;10.10;99.90;;;;;;4952214;29;20047;-78
2023/10/25 02:12:49;;;;;;;2.03;1.27;;;10.10;99.90;;;;;;4955438;29;20027;-78
2023/10/25 02:15:15;;;;;;;1.85;0.93;;;10.00;99.90;;;;;;4955356;29;20111;-76
2023/10/25 02:17:41;;;;;;;2.92;1.25;;;10.00;99.90;;;;;;4955857;29;20078;-77
2023/10/25 02:20:07;;;;;;;2.00;1.17;;;10.00;99.90;;;;;;4974560;28;20086;-76
2023/10/25 02:22:33;;;;;;;1.65;1.30;;;10.00;99.90;;;;;;4974756;28;20034;-77
2023/10/25 02:24:58;;;;;;;2.17;1.08;;;10.00;99.90;;;;;;4976741;28;20105;-78
2023/10/25 02:27:24;;;;;;;2.08;1.35;;;9.90;99.90;;;;;;4977946;28;20035;-78
2023/10/25 02:29:49;;;;;;;3.90;1.77;;;9.90;99.90;;;;;;4981307;28;20104;-79
2023/10/25 02:32:15;;;;;;;2.00;1.20;;;9.90;99.90;;;;;;4980672;28;20030;-79
2023/10/25 02:34:41;;;;;;;1.63;1.20;;;9.90;99.90;;;;;;4961555;28;20085;-79
2023/10/25 02:37:06;;;;;;;1.80;1.10;;;9.90;99.90;;;;;;4979489;28;20114;-79
2023/10/25 02:39:32;;;;;;;2.03;1.08;;;9.90;99.90;;;;;;4962477;28;20054;-79
2023/10/25 02:41:58;;;;;;;2.28;1.33;;;9.90;99.90;;;;;;4971055;28;20079;-79
2023/10/25 02:44:23;;;;;;;2.25;1.38;;;9.90;99.90;;;;;;4963399;29;20055;-79
2023/10/25 02:46:49;;;;;;;1.88;1.20;;;9.80;99.90;;;;;;4960800;28;20478;-79
2023/10/25 02:49:14;;;;;;;1.55;1.05;;;9.80;99.90;;;;;;4958230;29;20031;-77
2023/10/25 02:51:40;;;;;;;1.88;1.38;;;9.90;99.90;;;;;;4955552;29;20027;-77
2023/10/25 02:54:06;;;;;;;1.25;1.10;;;9.90;99.90;;;;;;4958001;29;20403;-77
2023/10/25 02:56:31;;;;;;;3.00;1.50;;;9.90;99.90;;;;;;4941877;29;20175;-77
2023/10/25 02:58:57;;;;;;;2.42;1.40;;;9.90;99.90;;;;;;4956228;28;20114;-77
2023/10/25 03:01:23;;;;;;;2.17;1.30;;;9.90;99.90;;;;;;4956587;29;20023;-80
2023/10/25 03:03:51;;;;;;;1.55;1.20;;;9.90;99.90;;;;;;4940574;29;20030;-77
2023/10/25 03:06:16;;;;;;;2.63;1.75;;;9.90;99.90;;;;;;4943310;29;20041;-77
2023/10/25 03:08:42;;;;;;;1.88;1.52;;;10.00;99.90;;;;;;4960556;28;20058;-78
2023/10/25 03:11:08;;;;;;;1.80;1.45;;;10.00;99.90;;;;;;4961053;29;20027;-79
2023/10/25 03:13:33;;;;;;;1.77;1.23;;;10.00;99.90;;;;;;4961781;28;20047;-79
2023/10/25 03:15:59;;;;;;;2.63;1.50;;;10.00;99.90;;;;;;4967209;28;20027;-78
2023/10/25 03:18:25;;;;;;;2.28;1.52;;;10.00;99.90;;;;;;4966972;29;20090;-79
2023/10/25 03:20:50;;;;;;;1.95;1.50;;;10.00;99.90;;;;;;4968211;28;20059;-80
2023/10/25 03:23:16;;;;;;;1.65;1.23;;;10.00;99.90;;;;;;4966610;28;20055;-78
2023/10/25 03:25:41;;;;;;;2.58;1.58;;;10.10;99.90;;;;;;4967360;28;20027;-79
2023/10/25 03:28:07;;;;;;;2.05;1.35;;;10.00;99.90;;;;;;4950307;29;20066;-78
2023/10/25 03:30:35;;;;;;;2.17;1.58;;;10.00;99.90;;;;;;4968545;28;20105;-79
2023/10/25 03:33:01;;;;;;;2.20;1.63;;;10.00;99.90;;;;;;4952624;29;20380;-79
2023/10/25 03:35:27;;;;;;;2.15;1.50;;;10.00;99.90;;;;;;4969006;29;20030;-78
2023/10/25 03:37:52;;;;;;;2.42;2.10;;;9.90;99.90;;;;;;4969376;29;20019;-79
2023/10/25 03:40:18;;;;;;;1.88;1.52;;;9.90;99.90;;;;;;4951081;29;20019;-78
2023/10/25 03:42:44;;;;;;;2.95;2.08;;;9.90;99.90;;;;;;4966833;29;20023;-78
2023/10/25 03:45:10;;;;;;;2.10;1.58;;;9.90;99.90;;;;;;4971195;28;20019;-80
2023/10/25 03:47:37;;;;;;;3.30;2.15;;;9.90;99.90;;;;;;4978964;28;20050;-81
2023/10/25 03:50:04;;;;;;;2.13;1.80;;;9.90;99.90;;;;;;4966530;28;20098;-80
2023/10/25 03:52:29;;;;;;;6.68;2.65;;;9.80;99.90;;;;;;4981067;28;20018;-80
2023/10/25 03:54:55;;;;;;;3.83;2.28;;;9.80;99.90;;;;;;4979081;28;20061;-81
2023/10/25 03:57:21;;;;;;;5.07;3.08;;;9.80;99.90;;;;;;4977617;28;20031;-77
2023/10/25 03:59:46;;;;;;;4.22;2.80;;;9.80;99.90;;;;;;4976293;28;20481;-81
2023/10/25 04:02:12;;;;;;;3.70;2.53;;;9.70;99.90;;;;;;4977055;28;20031;-75
2023/10/25 04:04:37;;;;;;;5.50;3.22;;;9.70;99.90;;;;;;4978617;28;20106;-75
2023/10/25 04:07:03;;;;;;;5.35;3.55;;;9.70;99.90;;;;;;4980881;28;20030;-78
2023/10/25 04:09:29;;;;;;;4.90;3.17;;;9.70;99.90;;;;;;4983824;28;20038;-79
2023/10/25 04:11:54;;;;;;;4.75;3.25;;;9.70;99.90;;;;;;4959001;28;20034;-79
2023/10/25 04:14:20;;;;;;;5.20;3.40;;;9.70;99.90;;;;;;4977979;28;20030;-77
2023/10/25 04:16:45;;;;;;;5.38;3.40;;;9.70;99.90;;;;;;4983062;28;20077;-79
2023/10/25 04:19:11;;;;;;;4.75;3.35;;;9.70;99.90;;;;;;4982481;28;20050;-79
2023/10/25 04:21:37;;;;;;;5.43;3.40;;;9.70;99.90;;;;;;4976178;28;20031;-79
2023/10/25 04:24:03;;;;;;;6.25;3.85;;;9.70;99.90;;;;;;4985393;28;20109;-78
2023/10/25 04:26:29;;;;;;;6.40;4.25;;;9.70;99.90;;;;;;4977448;28;20054;-76
2023/10/25 04:28:55;;;;;;;5.40;3.42;;;9.70;99.90;;;;;;4980301;28;20473;-77
2023/10/25 04:31:20;;;;;;;5.57;3.28;;;9.70;99.90;;;;;;4975968;28;20030;-77
2023/10/25 04:33:47;;;;;;;5.13;3.72;;;9.70;99.90;;;;;;4982402;28;20026;-77
2023/10/25 04:36:13;;;;;;;6.72;3.83;;;9.70;99.90;;;;;;4982980;28;20027;-78
2023/10/25 04:38:38;;;;;;;5.15;3.55;;;9.70;99.90;;;;;;4962492;28;20033;-75
2023/10/25 04:41:04;;;;;;;6.53;3.25;;;9.70;99.90;;;;;;4977027;28;20026;-77
2023/10/25 04:43:30;;;;;;;4.15;3.35;;;9.70;99.90;;;;;;4981625;28;20042;-75
2023/10/25 04:45:56;;;;;;;6.05;3.63;;;9.70;99.90;;;;;;4981954;28;20035;-76
2023/10/25 04:48:22;;;;;;;5.47;3.53;;;9.70;99.90;;;;;;4965117;28;20035;-74
2023/10/25 04:50:47;;;;;;;4.85;3.35;;;9.70;99.90;;;;;;4979321;28;20022;-78
2023/10/25 04:53:13;;;;;;;6.80;4.18;;;9.70;99.90;;;;;;4977363;28;20038;-79
2023/10/25 04:55:44;;;;;;;5.10;3.53;;;9.70;99.90;;;;;;4978769;28;20023;-79
2023/10/25 04:58:10;;;;;;;6.05;4.45;;;9.70;99.90;;;;;;4975119;28;20033;-79
2023/10/25 05:00:36;;;;;;;6.80;4.32;;;9.70;99.90;;;;;;4975280;28;20117;-79
2023/10/25 05:03:04;;;;;;;7.30;4.35;;;9.70;99.90;;;;;;4976429;28;20034;-78
2023/10/25 05:05:30;;;;;;;4.72;3.35;;;9.70;99.90;;;;;;4974964;28;20050;-78
2023/10/25 05:07:56;;;;;;;4.97;3.55;;;9.60;99.90;;;;;;4978438;28;20416;-78
2023/10/25 05:10:22;;;;;;;7.18;4.30;;;9.60;99.90;;;;;;4976709;28;20034;-79
2023/10/25 05:12:48;;;;;;;5.38;3.95;;;9.60;99.90;;;;;;4976716;28;21055;-79
2023/10/25 05:15:16;;;;;;;6.35;4.15;;;9.60;99.90;;;;;;4975302;28;20521;-77
2023/10/25 05:17:44;;;;;;;5.80;3.58;;;9.60;99.90;;;;;;4977018;28;20026;-78
2023/10/25 05:20:10;;;;;;;5.90;3.90;;;9.60;99.90;;;;;;4957797;28;20089;-77
2023/10/25 05:22:41;;;;;;;6.20;4.22;;;9.60;99.90;;;;;;4957270;28;20027;-77
2023/10/25 05:25:11;;;;;;;7.07;4.18;;;9.60;99.90;;;;;;4977197;28;20034;-78
2023/10/25 05:27:37;;;;;;;6.78;4.20;;;9.50;99.90;;;;;;4959736;28;20028;-75
2023/10/25 05:30:05;;;;;;;7.47;4.80;;;9.40;99.90;;;;;;4963475;28;20023;-78
2023/10/25 05:32:38;;;;;;;5.97;3.95;;;9.50;99.90;;;;;;4974071;28;20028;-79
2023/10/25 05:35:05;;;;;;;6.78;3.80;;;9.40;99.90;;;;;;4976894;28;20034;-79
2023/10/25 05:37:32;;;;;;;5.35;3.67;;;9.40;99.90;;;;;;4971264;28;20027;-78
2023/10/25 05:39:58;;;;;;;5.40;3.85;;;9.40;99.90;;;;;;4971367;28;20023;-81
2023/10/25 05:42:25;;;;;;;6.35;4.40;;;9.40;99.90;;;;;;4960902;28;20040;-77
2023/10/25 05:44:53;;;;;;;7.13;4.07;;;9.40;99.90;;;;;;4973869;28;20023;-78
2023/10/25 05:47:20;;;;;;;7.20;4.45;;;9.40;99.90;;;;;;4956862;28;20031;-80
2023/10/25 05:49:46;;;;;;;5.03;3.40;;;9.40;99.90;;;;;;4968177;28;20035;-80
2023/10/25 05:52:12;;;;;;;4.10;2.83;;;9.30;99.90;;;;;;4959119;28;20028;-79
2023/10/25 05:54:38;;;;;;;6.57;3.20;;;9.30;99.90;;;;;;4972784;28;20378;-73
2023/10/25 05:57:04;;;;;;;9.07;4.57;;;9.30;99.90;;;;;;4962695;28;20033;-74
2023/10/25 05:59:30;;;;;;;4.38;2.72;;;9.30;99.90;;;;;;4965467;28;20093;-73
2023/10/25 06:02:14;;;;;;;5.20;3.33;;;9.20;99.90;;;;;;4963204;28;20070;-76
2023/10/25 06:04:41;;;;;;;5.22;3.38;;;9.20;99.90;;;;;;4962570;28;20034;-75
2023/10/25 06:07:09;;;;;;;6.63;3.10;;;9.20;99.90;;;;;;4953740;28;20042;-76
2023/10/25 06:09:37;;;;;;;6.35;3.25;;;9.20;99.90;;;;;;4963674;28;20056;-75
2023/10/25 06:12:03;;;;;;;7.88;3.53;;;9.20;99.90;;;;;;4969439;28;20502;-76
2023/10/25 06:14:32;;;;;;;4.88;3.08;;;9.20;99.90;;;;;;4962433;28;20062;-76
2023/10/25 06:16:58;;;;;;;4.70;3.10;;;9.20;99.90;;;;;;4960061;28;20106;-76
2023/10/25 06:19:24;;;;;;;4.03;2.78;;;9.30;99.90;;;;;;4964482;28;20034;-75
2023/10/25 06:21:50;;;;;;;4.43;2.97;;;9.20;99.90;;;;;;4965664;28;20103;-75
2023/10/25 06:24:15;;;;;;;6.97;2.85;;;9.30;99.90;;;;;;4958979;28;20109;-75
2023/10/25 06:26:44;;;;;;;6.03;3.10;;;9.30;99.90;;;;;;4962332;28;20041;-76
2023/10/25 06:29:09;;;;;;;5.95;3.10;;;9.30;99.90;;;;;;4967031;28;20039;-75
2023/10/25 06:31:35;;;;;;;5.47;3.15;;;9.30;99.90;;;;;;4964618;28;20073;-76
2023/10/25 06:34:01;;;;;;;4.47;3.42;;;9.30;99.90;;;;;;4960224;28;20030;-75
2023/10/25 06:36:27;;;;;;;5.63;3.47;;;9.20;99.90;;;;;;4963819;28;20027;-76
2023/10/25 06:38:53;;;;;;;4.30;3.25;;;9.30;99.90;;;;;;4947804;28;20034;-76
2023/10/25 06:41:22;;;;;;;7.22;3.40;;;9.30;99.90;;;;;;4948863;28;20062;-76
2023/10/25 06:43:48;;;;;;;4.45;3.25;;;9.40;99.90;;;;;;4971448;28;20027;-77
2023/10/25 06:46:14;;;;;;;5.38;3.53;;;9.50;99.90;;;;;;4977380;28;20037;-80
2023/10/25 06:48:40;;;;;;;5.88;3.78;;;9.50;99.90;;;;;;4978026;28;20038;-78
2023/10/25 06:51:06;;;;;;;5.13;3.47;;;9.60;99.90;;;;;;4975342;28;20453;-78
2023/10/25 06:53:33;;;;;;;4.35;3.05;;;9.70;99.90;;;;;;4972808;28;20023;-79
2023/10/25 06:55:59;;;;;;;4.60;3.50;;;9.70;99.90;;;;;;4958021;28;20136;-77
2023/10/25 06:58:26;;;;;;;5.40;3.22;;;9.80;99.90;;;;;;4956508;28;20392;-79
2023/10/25 07:00:55;;;;;;;5.25;3.35;;;9.80;99.90;;;;;;4967089;28;20082;-78
2023/10/25 07:03:27;;;;;;;5.05;2.97;;;9.90;99.90;;;;;;4976504;28;20123;-79
2023/10/25 07:05:56;;;;;;;4.22;3.08;;;10.00;99.90;;;;;;4972279;28;20027;-78
2023/10/25 07:08:22;;;;;;;5.32;2.85;;;10.00;99.90;;;;;;4974176;28;20031;-78
2023/10/25 07:10:48;;;;;;;4.53;2.72;;;10.10;99.90;;;;;;4960522;28;20085;-78
2023/10/25 07:13:13;;;;;;;4.75;2.95;;;10.20;99.90;;;;;;4961970;28;20458;-77
2023/10/25 07:15:39;;;;;;;5.78;3.25;;;10.30;99.90;;;;;;4973050;28;20031;-78
2023/10/25 07:18:05;;;;;;;4.40;2.78;;;10.40;99.90;;;;;;4976404;28;20034;-79
2023/10/25 07:20:31;;;;;;;3.97;2.80;;;10.40;99.90;;;;;;4975279;28;20023;-80
2023/10/25 07:22:57;;;;;;;5.68;2.60;;;10.50;99.90;;;;;;4977397;28;20018;-77
2023/10/25 07:25:23;;;;;;;3.95;2.88;;;10.60;99.90;;;;;;4976600;28;20063;-79
2023/10/25 07:27:48;;;;;;;4.72;2.70;;;10.60;99.90;;;;;;4975686;28;20034;-79
2023/10/25 07:30:14;;;;;;;3.13;2.08;;;10.60;99.90;;;;;;4975779;28;20058;-77
2023/10/25 07:32:40;;;;;;;5.93;3.13;;;10.70;99.90;;;;;;4956846;28;20066;-79
2023/10/25 07:35:06;;;;;;;4.05;3.10;;;10.70;99.90;;;;;;4963421;28;20050;-79
2023/10/25 07:37:32;;;;;;;4.65;2.97;;;10.80;99.90;;;;;;4979647;28;20026;-80
2023/10/25 07:39:57;;;;;;;5.47;2.72;;;10.90;99.90;;;;;;4977674;28;20038;-78
2023/10/25 07:42:23;;;;;;;4.75;2.80;;;11.00;99.90;;;;;;4982005;28;20031;-78
2023/10/25 07:44:49;;;;;;;3.60;2.47;;;11.00;99.90;;;;;;4965108;28;20090;-75
2023/10/25 07:47:14;;;;;;;2.97;2.17;;;11.20;99.90;;;;;;4973790;28;20035;-79
2023/10/25 07:49:45;;;;;;;4.05;2.08;;;11.20;99.90;;;;;;4974847;28;20047;-80
2023/10/25 07:52:11;;;;;;;3.33;1.95;;;11.30;99.90;;;;;;4961451;28;20062;-76
2023/10/25 07:54:37;;;;;;;4.00;2.05;;;11.40;99.90;;;;;;4965463;28;20051;-76
2023/10/25 07:57:02;;;;;;;4.95;2.08;;;11.50;99.90;;;;;;4960699;28;20082;-75
2023/10/25 07:59:29;;;;;;;3.05;1.90;;;11.50;99.90;;;;;;4965277;28;20082;-76
2023/10/25 08:01:57;;;;;;;2.75;1.88;;;11.60;99.90;;;;;;4948758;28;20039;-75
2023/10/25 08:04:22;;;;;;;3.40;2.05;;;11.70;99.90;;;;;;4957157;28;20118;-76
2023/10/25 08:06:48;;;;;;;4.55;2.17;;;11.60;99.90;;;;;;4944389;28;20145;-77
2023/10/25 08:09:14;;;;;;;4.03;2.20;;;11.70;99.90;;;;;;4963651;28;20027;-74
2023/10/25 08:11:40;;;;;;;6.57;2.20;;;11.80;99.90;;;;;;4955749;28;20030;-75
2023/10/25 08:14:06;;;;;;;3.40;1.67;;;11.80;99.90;;;;;;4964163;28;20454;-75
2023/10/25 08:16:32;;;;;;;2.85;1.90;;;11.80;99.90;;;;;;4950821;28;20441;-75
2023/10/25 08:18:58;;;;;;;4.20;2.28;;;11.90;99.90;;;;;;4963837;28;20465;-75
2023/10/25 08:21:23;;;;;;;2.00;1.45;;;11.90;99.90;;;;;;4951941;28;20031;-75
2023/10/25 08:23:51;;;;;;;2.22;1.60;;;12.00;99.90;;;;;;4960039;28;20122;-75
2023/10/25 08:26:18;;;;;;;4.15;1.95;;;12.00;99.90;;;;;;4965803;28;20027;-75
2023/10/25 08:28:44;;;;;;;3.00;1.88;;;12.00;99.90;;;;;;4969549;28;20039;-75
2023/10/25 08:31:11;;;;;;;2.90;1.55;;;12.10;99.90;;;;;;4965667;28;20031;-75
2023/10/25 08:33:37;;;;;;;2.67;1.83;;;12.10;99.90;;;;;;4947748;28;20039;-75
2023/10/25 08:36:03;;;;;;;4.07;2.17;;;12.10;99.90;;;;;;4965180;28;20026;-75
2023/10/25 08:38:29;;;;;;;4.05;2.20;;;12.20;99.90;;;;;;4964021;28;20093;-74
2023/10/25 08:41:06;;;;;;;5.82;2.08;;;12.20;99.90;;;;;;4950043;28;20039;-74
2023/10/25 08:43:36;;;;;;;3.88;2.10;;;12.10;99.90;;;;;;4961487;28;20050;-74
2023/10/25 08:46:03;;;;;;;2.45;1.65;;;12.20;99.90;;;;;;4949520;28;20038;-75
2023/10/25 08:48:29;;;;;;;2.28;1.90;;;12.20;99.90;;;;;;4968182;28;20053;-74
2023/10/25 08:50:56;;;;;;;3.75;2.00;;;12.20;99.90;;;;;;4969571;28;20019;-75
2023/10/25 08:53:26;;;;;;;3.58;1.90;;;12.20;99.90;;;;;;4973986;28;20482;-75
2023/10/25 08:55:52;;;;;;;2.25;1.70;;;12.20;99.90;;;;;;4966848;28;20023;-75
2023/10/25 08:58:23;;;;;;;3.13;1.88;;;12.20;99.90;;;;;;4954647;28;20035;-75
2023/10/25 09:00:51;;;;;;;2.22;1.50;;;12.20;99.90;;;;;;4965805;28;20109;-74
2023/10/25 09:03:31;;;;;;;1.80;1.50;;;12.20;99.90;;;;;;4956560;28;20027;-74
2023/10/25 09:05:58;;;;;;;2.40;1.30;;;12.20;99.90;;;;;;4972626;28;20106;-73
2023/10/25 09:08:24;;;;;;;2.35;1.48;;;12.30;99.90;;;;;;4953304;28;20039;-76
2023/10/25 09:11:10;;;;;;;2.70;1.70;;;12.30;99.90;;;;;;4966168;28;20034;-73
2023/10/25 09:13:44;;;;;;;2.05;1.63;;;12.30;99.90;;;;;;4971960;28;20026;-76
2023/10/25 09:16:11;;;;;;;3.13;1.58;;;12.30;99.90;;;;;;4966546;28;20046;-75
2023/10/25 09:18:38;;;;;;;2.60;1.70;;;12.30;99.90;;;;;;4969928;28;20027;-75
2023/10/25 09:21:05;;;;;;;2.50;1.67;;;12.30;99.90;;;;;;4962551;28;20486;-75
2023/10/25 09:23:33;;;;;;;3.60;1.60;;;12.30;99.90;;;;;;4984088;28;20030;-73
2023/10/25 09:26:00;;;;;;;1.95;1.20;;;12.40;99.90;;;;;;4975364;28;20042;-73
2023/10/25 09:28:27;;;;;;;2.60;1.55;;;12.40;99.90;;;;;;4973602;28;20054;-72
2023/10/25 09:31:00;;;;;;;2.40;1.38;;;12.50;99.90;;;;;;4973584;28;20038;-74
2023/10/25 09:33:30;;;;;;;2.35;1.58;;;12.50;99.90;;;;;;4966238;28;20557;-75
2023/10/25 09:35:57;;;;;;;3.03;1.77;;;12.50;99.90;;;;;;4965907;28;20050;-72
2023/10/25 09:38:24;;;;;;;3.00;1.80;;;12.50;99.90;;;;;;4974956;28;20058;-74
2023/10/25 09:40:51;;;;;;;3.78;1.40;;;12.60;99.90;;;;;;4977189;28;20030;-75
2023/10/25 09:43:20;;;;;;;3.35;1.70;;;12.70;99.90;;;;;;4958923;28;20057;-75
2023/10/25 09:45:59;;;;;;;3.47;1.45;;;12.80;99.90;;;;;;4971641;28;20023;-75
2023/10/25 09:48:26;;;;;;;2.13;1.40;;;12.80;99.90;;;;;;4962662;28;20027;-75
2023/10/25 09:51:16;;;;;;;2.60;1.52;;;12.90;99.90;;;;;;4948599;28;20421;-75
2023/10/25 09:53:52;;;;;;;8.23;1.80;;;13.00;99.90;;;;;;4975857;28;20082;-76
2023/10/25 09:56:18;;;;;;;2.28;1.48;;;13.10;99.90;;;;;;4977235;28;20482;-74
2023/10/25 09:58:46;;;;;;;3.13;1.05;;;13.20;99.90;;;;;;4962936;28;20086;-74
2023/10/25 10:01:11;;;;;;;2.72;1.30;;;13.20;99.90;;;;;;4967960;28;20034;-74
2023/10/25 10:03:52;;;;;;;1.98;0.98;;;13.30;99.90;;;;;;4944272;28;20023;-74
2023/10/25 10:06:36;;;;;;;2.92;1.20;;;13.40;99.90;;;;;;4967726;28;20035;-74
2023/10/25 10:09:20;;;;;;;3.73;1.10;;;13.50;99.90;;;;;;4963311;28;20031;-74
2023/10/25 10:11:56;;;;;;;3.40;1.20;;;13.60;99.90;;;;;;4968208;28;20034;-74
2023/10/25 10:14:30;;;;;;;2.15;1.02;;;13.70;99.90;;;;;;4970397;28;20078;-74
2023/10/25 10:17:19;;;;;;;2.05;1.08;;;13.80;99.90;;;;;;4965886;28;20030;-73
2023/10/25 10:19:48;;;;;;;2.42;1.00;;;13.80;99.90;;;;;;4968205;28;20069;-74
2023/10/25 10:22:18;;;;;;;1.98;1.00;;;14.00;99.90;;;;;;4959131;28;20495;-74
2023/10/25 10:24:45;;;;;;;2.58;0.65;;;14.10;99.90;;;;;;4969936;28;20023;-73
2023/10/25 10:27:18;;;;;;;1.40;0.73;;;14.20;99.90;;;;;;4965157;28;20038;-74
2023/10/25 10:29:45;;;;;;;1.03;0.90;;;14.20;99.90;;;;;;4969872;28;20467;-74
2023/10/25 10:32:12;;;;;;;1.48;1.00;;;14.30;99.90;;;;;;4958818;28;20030;-74
2023/10/25 10:34:53;;;;;;;1.60;0.80;;;14.40;99.90;;;;;;4962622;28;20042;-74
2023/10/25 10:37:25;;;;;;;4.05;1.05;;;14.40;99.90;;;;;;4949997;28;20532;-73
2023/10/25 10:39:57;;;;;;;1.90;1.10;;;14.40;99.90;;;;;;4967040;28;20035;-73
2023/10/25 10:42:29;;;;;;;3.75;0.98;;;14.40;99.90;;;;;;4960322;28;20023;-74
2023/10/25 10:44:59;;;;;;;2.25;1.20;;;14.50;99.90;;;;;;4967111;28;20018;-74
2023/10/25 10:47:43;;;;;;;1.92;1.05;;;14.60;99.90;;;;;;4963192;28;20019;-75
2023/10/25 10:50:11;;;;;;;3.03;1.05;;;14.60;99.90;;;;;;4962872;28;20045;-75
2023/10/25 10:52:38;;;;;;;1.88;0.90;;;14.60;99.90;;;;;;4965130;28;20513;-75
2023/10/25 10:55:05;;;;;;;1.67;0.80;;;14.60;99.90;;;;;;4962759;28;20564;-74
2023/10/25 10:57:31;;;;;;;1.10;0.88;;;14.60;99.90;;;;;;4970897;28;20019;-74
2023/10/25 10:59:57;;;;;;;1.50;0.82;;;14.60;99.90;;;;;;4961270;28;20030;-74
2023/10/25 11:02:24;;;;;;;1.15;0.70;;;14.70;99.90;;;;;;4962226;28;20078;-74
2023/10/25 11:04:50;;;;;;;1.38;0.73;;;14.70;99.90;;;;;;4962938;28;20448;-74
2023/10/25 11:07:17;;;;;;;4.47;0.90;;;14.80;99.90;;;;;;4962962;28;20051;-74
2023/10/25 11:09:43;;;;;;;1.23;0.70;;;14.80;99.90;;;;;;4964540;28;20670;-74
2023/10/25 11:12:10;;;;;;;1.95;0.90;;;14.80;99.90;;;;;;4950586;28;20085;-75
2023/10/25 11:14:42;;;;;;;2.72;0.60;;;14.90;99.90;;;;;;4963514;28;20030;-74
2023/10/25 11:17:09;;;;;;;1.92;1.08;;;14.90;99.90;;;;;;4958548;28;20031;-75
2023/10/25 11:19:34;;;;;;;3.28;1.20;;;14.90;99.90;;;;;;4965757;28;20050;-76
2023/10/25 11:22:01;;;;;;;1.98;0.80;;;14.90;99.90;;;;;;4951133;28;20077;-75
2023/10/25 11:24:27;;;;;;;2.67;0.98;;;15.00;99.90;;;;;;4964842;28;20045;-75
2023/10/25 11:26:53;;;;;;;1.67;0.82;;;15.00;99.90;;;;;;4966062;28;20106;-74
2023/10/25 11:29:22;;;;;;;2.35;1.08;;;15.10;99.90;;;;;;4962488;28;20034;-74
2023/10/25 11:31:50;;;;;;;1.08;0.70;;;15.10;99.90;;;;;;4961581;28;20393;-74
2023/10/25 11:34:20;;;;;;;0.85;0.52;;;15.20;99.90;;;;;;4948422;28;20033;-74
2023/10/25 11:36:52;;;;;;;2.05;0.68;;;15.20;99.90;;;;;;4949329;28;20119;-75
2023/10/25 11:39:18;;;;;;;1.70;0.70;;;15.40;99.90;;;;;;4967741;28;20105;-75
2023/10/25 11:41:44;;;;;;;3.70;0.60;;;15.40;99.90;;;;;;4967404;28;20027;-74
2023/10/25 11:44:09;;;;;;;1.65;0.50;;;15.50;99.90;;;;;;4961615;28;20038;-75
2023/10/25 11:46:40;;;;;;;1.88;0.90;;;15.50;99.90;;;;;;4954254;28;20073;-74
2023/10/25 11:49:07;;;;;;;1.17;0.68;;;15.50;99.90;;;;;;4965095;28;20050;-74
2023/10/25 11:51:34;;;;;;;0.98;0.50;;;15.60;99.90;;;;;;4959223;28;20057;-75
2023/10/25 11:54:01;;;;;;;1.92;0.73;;;15.60;99.90;;;;;;4967119;28;20031;-75
2023/10/25 11:56:27;;;;;;;0.88;0.40;;;15.60;99.90;;;;;;4965679;28;20034;-73
2023/10/25 11:58:53;;;;;;;2.30;0.70;;;15.70;99.90;;;;;;4954431;28;20035;-75
2023/10/25 12:01:18;;;;;;;0.85;0.40;;;15.70;99.90;;;;;;4962447;28;20061;-74
2023/10/25 12:03:44;;;;;;;1.10;0.60;;;15.70;99.90;;;;;;4964695;28;20538;-75
2023/10/25 12:06:11;;;;;;;0.57;0.45;;;15.80;99.90;;;;;;4962273;28;20117;-74
2023/10/25 12:08:41;;;;;;;1.13;0.50;;;15.80;99.90;;;;;;4970777;28;20023;-75
2023/10/25 12:11:12;;;;;;;1.70;0.73;;;15.90;99.90;;;;;;4964334;28;20041;-74
2023/10/25 12:13:39;;;;;;;0.65;0.40;;;15.90;99.90;;;;;;4967104;28;20514;-74
2023/10/25 12:16:06;;;;;;;1.15;0.70;;;16.00;99.90;;;;;;4958943;28;20110;-74
2023/10/25 12:18:33;;;;;;;1.08;0.40;;;16.00;99.90;;;;;;4949342;28;20026;-74
2023/10/25 12:21:03;;;;;;;0.63;0.40;;;16.10;99.90;;;;;;4954724;28;20034;-75
2023/10/25 12:23:32;;;;;;;1.17;0.68;;;16.10;99.90;;;;;;4973980;28;20553;-74
2023/10/25 12:25:58;;;;;;;2.97;0.55;;;16.20;99.90;;;;;;4968005;28;20082;-73
2023/10/25 12:28:24;;;;;;;0.68;0.40;;;16.20;99.90;;;;;;4955802;28;20031;-73
2023/10/25 12:30:50;;;;;;;2.38;0.60;;;16.20;99.90;;;;;;4969700;28;20023;-74
2023/10/25 12:33:16;;;;;;;0.65;0.30;;;16.30;99.90;;;;;;4975291;28;20572;-74
2023/10/25 12:35:42;;;;;;;0.85;0.40;;;16.40;99.90;;;;;;4955053;28;20554;-73
2023/10/25 12:38:08;;;;;;;2.10;0.55;;;16.40;99.90;;;;;;4957527;28;20037;-74
2023/10/25 12:40:34;;;;;;;1.20;0.50;;;16.40;99.90;;;;;;4972455;28;20027;-73
2023/10/25 12:42:59;;;;;;;1.65;0.50;;;16.40;99.90;;;;;;4974837;28;20441;-74
2023/10/25 12:45:25;;;;;;;0.70;0.40;;;16.40;99.90;;;;;;4970705;28;20031;-72
2023/10/25 12:47:51;;;;;;;2.53;0.52;;;16.30;99.90;;;;;;4968221;28;20034;-74
2023/10/25 12:50:17;;;;;;;1.13;0.63;;;16.30;99.90;;;;;;4969852;28;20154;-75